Decoded Metar for KTKI (MCKINNEY in TX, USA) (IATA:TKI) | Meteo·Mobile Aviation Weather
aviador You're here:

KTKI Decoded Metar

MCKINNEY in TX, USA
Report Time2019-05-22 06:53:00
UTC Time2019-05-22 07:44:37
Flight Rules vfr VFR
Wind170° at 07 kt
W.Decomp.*RWY 18: 6.8 kt HW 1.6 kt LCW
Visibility9999 m
Phenomena:N/A
Clouds:N/A
Expected CloudBase > 400 ft AGL from Temp-Dew spread
CeilingNone
Temp18°C (ISA +4)
Dew Point17°C (94% RH)
AAT17.9°C
QNH1006 hPa
Density Alt1,575 ft
Elevation587 ft
Report Wrong Elevation
Raw Report
KTKI 220653Z AUTO 17007KT 10SM CLR 18/17 A2971 RMK AO2 SLP059
T01780167=

Extra information for KTKI:More info

Metar Taf Metar & Taf Last 4 Metars F.Rules Stats Wind Profile Meteogram Temp Stats Airport Information Weather charts Add Link Nearby VenuesMetar ALERT Operation Metar Decoded Social comments

AIRNAV info for KTKI